createdAt,value
2019-02-26T00:03:04.749Z," 6.93"
2019-02-26T00:08:02.457Z," 6.77"
2019-02-26T00:12:57.490Z," 6.66"
2019-02-26T00:17:53.315Z," 6.62"
2019-02-26T00:22:48.760Z," 6.74"
2019-02-26T00:27:44.435Z," 6.67"
2019-02-26T00:32:40.546Z," 6.72"
2019-02-26T00:37:37.051Z," 6.66"
2019-02-26T00:42:34.251Z," 6.63"
2019-02-26T00:47:33.882Z," 6.89"
2019-02-26T00:52:30.464Z," 6.95"
2019-02-26T00:57:27.320Z," 6.85"
2019-02-26T01:02:25.121Z," 6.75"
2019-02-26T01:07:21.363Z," 6.89"
2019-02-26T01:12:18.344Z," 6.79"
2019-02-26T01:17:14.842Z," 6.81"
2019-02-26T01:22:11.268Z," 6.46"
2019-02-26T01:27:08.465Z," 6.41"
2019-02-26T01:32:03.784Z," 6.20"
2019-02-26T01:37:00.909Z," 6.16"
2019-02-26T01:41:58.824Z," 6.12"
2019-02-26T01:46:55.623Z," 6.39"
2019-02-26T01:51:53.937Z," 6.39"
2019-02-26T01:56:50.891Z," 6.36"
2019-02-26T02:01:49.634Z," 6.46"
2019-02-26T02:06:45.942Z," 6.41"
2019-02-26T02:11:41.811Z," 6.51"
2019-02-26T02:16:37.314Z," 6.38"
2019-02-26T02:21:33.812Z," 6.14"
2019-02-26T02:26:30.611Z," 6.11"
2019-02-26T02:31:31.120Z," 6.09"
2019-02-26T02:36:27.403Z," 6.22"
2019-02-26T02:41:22.603Z," 5.73"
2019-02-26T02:46:18.134Z," 5.66"
2019-02-26T02:51:13.779Z," 5.51"
2019-02-26T02:56:10.550Z," 5.25"
2019-02-26T03:01:07.149Z," 5.30"
2019-02-26T03:06:06.495Z," 5.25"
2019-02-26T03:11:01.429Z," 5.21"
2019-02-26T03:15:59.264Z," 5.10"
2019-02-26T03:20:56.691Z," 5.14"
2019-02-26T03:25:55.187Z," 5.18"
2019-02-26T03:30:50.310Z," 5.26"
2019-02-26T03:35:45.876Z," 5.04"
2019-02-26T03:40:41.959Z," 4.80"
2019-02-26T03:45:37.596Z," 5.07"
2019-02-26T03:50:33.328Z," 5.28"
2019-02-26T03:55:31.707Z," 5.43"
2019-02-26T04:00:27.884Z," 5.56"
2019-02-26T04:05:24.498Z," 5.20"
2019-02-26T04:10:19.923Z," 5.14"
2019-02-26T04:15:15.457Z," 5.29"
2019-02-26T04:20:12.617Z," 5.25"
2019-02-26T04:25:09.279Z," 5.21"
2019-02-26T04:30:06.287Z," 5.14"
2019-02-26T04:35:04.155Z," 5.14"
2019-02-26T04:40:01.465Z," 5.36"
2019-02-26T04:45:01.226Z," 5.20"
2019-02-26T04:50:00.671Z," 5.23"
2019-02-26T04:54:57.840Z," 5.14"
2019-02-26T04:59:55.469Z," 5.35"
2019-02-26T05:04:50.955Z," 5.25"
2019-02-26T05:09:47.536Z," 5.02"
2019-02-26T05:14:44.797Z," 5.11"
2019-02-26T05:19:43.377Z," 5.25"
2019-02-26T05:24:42.423Z," 5.30"
2019-02-26T05:29:40.974Z," 5.14"
2019-02-26T05:34:39.848Z," 4.97"
2019-02-26T05:39:36.446Z," 4.66"
2019-02-26T05:44:31.920Z," 4.52"
2019-02-26T05:49:31.558Z," 4.37"
2019-02-26T05:54:29.218Z," 4.26"
2019-02-26T05:59:23.996Z," 4.31"
2019-02-26T06:04:20.681Z," 4.32"
2019-02-26T06:09:16.371Z," 4.19"
2019-02-26T06:14:12.646Z," 4.23"
2019-02-26T06:19:10.914Z," 4.22"
2019-02-26T06:24:06.201Z," 4.26"
2019-02-26T06:29:03.036Z," 4.40"
2019-02-26T06:34:01.660Z," 4.50"
2019-02-26T06:38:58.869Z," 4.53"
2019-02-26T06:43:55.626Z," 4.59"
2019-02-26T06:48:52.257Z," 4.73"
2019-02-26T06:53:49.795Z," 4.75"
2019-02-26T06:58:47.430Z," 4.92"
2019-02-26T07:03:42.637Z," 4.87"
2019-02-26T07:08:38.612Z," 4.71"
2019-02-26T07:13:36.182Z," 4.52"
2019-02-26T07:18:31.584Z," 4.37"
2019-02-26T07:23:29.310Z," 4.55"
2019-02-26T07:28:26.847Z," 4.68"
2019-02-26T07:33:22.241Z," 5.28"
2019-02-26T07:38:18.941Z," 5.35"
2019-02-26T07:43:17.914Z," 5.73"
2019-02-26T07:48:18.598Z," 5.91"
2019-02-26T09:57:52.091Z,11.51
2019-02-26T10:02:47.166Z,11.65
2019-02-26T10:07:44.527Z,11.88
2019-02-26T10:12:40.652Z,12.04
2019-02-26T10:17:39.986Z,12.45
2019-02-26T10:22:38.010Z,12.57
2019-02-26T10:27:36.131Z,12.75
2019-02-26T10:32:33.716Z,13.09
2019-02-26T10:37:31.314Z,13.33
2019-02-26T10:42:27.208Z,13.37
2019-02-26T10:47:25.082Z,13.60
2019-02-26T10:52:23.873Z,14.10
2019-02-26T10:57:20.383Z,14.43
2019-02-26T11:02:17.793Z,14.37
2019-02-26T11:07:16.360Z,14.45
2019-02-26T11:12:12.895Z,14.81
2019-02-26T11:17:09.915Z,15.02
2019-02-26T11:22:06.922Z,15.64
2019-02-26T11:27:04.115Z,16.23
2019-02-26T11:32:01.657Z,16.58
2019-02-26T11:37:00.768Z,16.91
2019-02-26T11:42:00.770Z,16.76
2019-02-26T11:46:56.608Z,16.23
2019-02-26T11:51:52.100Z,16.47
2019-02-26T11:56:49.869Z,16.65
2019-02-26T12:01:47.027Z,16.74
2019-02-26T12:06:43.595Z,16.68
2019-02-26T12:11:40.336Z,16.60
2019-02-26T12:16:35.670Z,16.41
2019-02-26T12:21:32.301Z,16.57
2019-02-26T12:26:30.212Z,16.64
2019-02-26T12:31:28.428Z,16.71
2019-02-26T12:36:26.632Z,16.76
2019-02-26T12:41:25.500Z,17.30
2019-02-26T12:46:23.890Z,17.48
2019-02-26T12:51:20.035Z,17.71
2019-02-26T12:56:17.082Z,17.65
2019-02-26T13:01:12.884Z,17.71
2019-02-26T13:06:11.901Z,17.39
2019-02-26T13:11:11.764Z,17.34
2019-02-26T13:16:07.996Z,17.45
2019-02-26T13:21:08.943Z,17.33
2019-02-26T13:26:04.635Z,17.06
2019-02-26T13:31:04.960Z,17.12
2019-02-26T13:36:04.845Z,17.20
2019-02-26T13:41:24.357Z,17.31
2019-02-26T13:46:00.940Z,17.64
2019-02-26T13:50:56.668Z,17.34
2019-02-26T13:55:52.561Z,17.65
2019-02-26T14:00:48.695Z,17.98
2019-02-26T14:05:45.290Z,18.56
2019-02-26T14:10:41.511Z,18.83
2019-02-26T14:15:37.490Z,18.83
2019-02-26T14:20:34.400Z,18.08
2019-02-26T14:25:29.564Z,17.63
2019-02-26T14:30:25.496Z,17.41
2019-02-26T14:35:23.020Z,17.19
2019-02-26T14:40:19.081Z,17.30
2019-02-26T14:45:14.251Z,17.19
2019-02-26T14:50:10.033Z,16.96
2019-02-26T14:55:06.413Z,16.93
2019-02-26T15:00:02.267Z,16.75
2019-02-26T15:04:58.136Z,16.79
2019-02-26T15:09:53.768Z,16.65
2019-02-26T15:14:49.665Z,16.76
2019-02-26T15:19:49.625Z,16.79
2019-02-26T15:24:45.601Z,16.71
2019-02-26T15:29:41.120Z,16.68
2019-02-26T15:34:37.127Z,16.64
2019-02-26T15:39:33.801Z,16.54
2019-02-26T15:44:30.349Z,16.43
2019-02-26T15:49:25.737Z,16.41
2019-02-26T15:54:21.666Z,16.33
2019-02-26T15:59:17.513Z,16.36
2019-02-26T16:04:13.245Z,16.13
2019-02-26T16:09:09.961Z,16.09
2019-02-26T16:14:05.475Z,16.23
2019-02-26T16:19:01.330Z,16.04
2019-02-26T16:23:58.626Z,15.76
2019-02-26T16:28:56.471Z,15.70
2019-02-26T16:33:51.937Z,15.62
2019-02-26T16:38:50.736Z,15.54
2019-02-26T16:43:47.289Z,15.22
2019-02-26T16:48:42.607Z,14.92
2019-02-26T16:53:39.191Z,14.78
2019-02-26T16:58:35.616Z,14.51
2019-02-26T17:03:34.051Z,14.41
2019-02-26T17:08:30.746Z,14.18
2019-02-26T17:13:25.997Z,13.92
2019-02-26T17:18:21.664Z,13.72
2019-02-26T17:23:18.800Z,13.49
2019-02-26T17:28:15.805Z,13.28
2019-02-26T17:33:14.562Z,13.15
2019-02-26T17:38:12.852Z,12.86
2019-02-26T17:43:10.500Z,12.70
2019-02-26T17:48:06.484Z,12.68
2019-02-26T17:53:02.172Z,12.50
2019-02-26T17:57:57.948Z,12.36
2019-02-26T18:02:53.555Z,12.21
2019-02-26T18:07:50.775Z,12.10
2019-02-26T18:12:46.628Z,11.87
2019-02-26T18:17:42.174Z,11.80
2019-02-26T18:22:38.481Z,11.70
2019-02-26T18:27:34.417Z,11.60
2019-02-26T18:32:30.050Z,11.44
2019-02-26T18:37:26.149Z,11.30
2019-02-26T18:42:22.098Z,11.11
2019-02-26T18:47:18.062Z,11.11
2019-02-26T18:52:13.898Z,11.00
2019-02-26T18:57:11.504Z,10.96
2019-02-26T19:02:07.452Z,10.79
2019-02-26T19:07:05.218Z,10.72
2019-02-26T19:12:00.383Z,10.57
2019-02-26T19:16:56.086Z,10.38
2019-02-26T19:21:54.105Z,10.46
2019-02-26T19:26:49.976Z,10.33
2019-02-26T19:31:46.809Z,10.16
2019-02-26T19:36:45.456Z,10.16
2019-02-26T19:41:40.848Z,10.02
2019-02-26T19:46:36.387Z,10.04
2019-02-26T19:51:32.481Z,10.05
2019-02-26T19:56:29.075Z," 9.83"
2019-02-26T20:01:25.855Z," 9.72"
2019-02-26T20:06:23.562Z," 9.65"
2019-02-26T20:11:22.832Z," 9.62"
2019-02-26T20:16:18.251Z," 9.54"
2019-02-26T20:21:13.666Z," 9.44"
2019-02-26T20:26:10.635Z," 9.40"
2019-02-26T20:31:05.863Z," 9.26"
2019-02-26T20:36:01.495Z," 9.29"
2019-02-26T20:40:57.360Z," 9.22"
2019-02-26T20:45:53.978Z," 8.99"
2019-02-26T20:50:53.459Z," 9.08"
2019-02-26T20:55:52.571Z," 9.10"
2019-02-26T21:00:48.308Z," 9.04"
2019-02-26T21:05:44.741Z," 8.79"
2019-02-26T21:10:40.530Z," 8.82"
2019-02-26T21:15:36.208Z," 8.82"
2019-02-26T21:20:31.811Z," 8.81"
2019-02-26T21:25:28.682Z," 8.89"
2019-02-26T21:30:26.466Z," 8.69"
2019-02-26T21:35:21.466Z," 8.58"
2019-02-26T21:40:17.227Z," 8.44"
2019-02-26T21:45:16.192Z," 8.20"
2019-02-26T21:50:10.898Z," 8.24"
2019-02-26T21:55:07.594Z," 8.27"
2019-02-26T22:00:05.495Z," 8.42"
2019-02-26T22:05:05.089Z," 8.41"
2019-02-26T22:10:00.002Z," 8.49"
2019-02-26T22:14:55.931Z," 8.49"
2019-02-26T22:19:52.428Z," 8.44"
2019-02-26T22:24:47.885Z," 8.20"
2019-02-26T22:29:47.919Z," 8.10"
2019-02-26T22:34:42.932Z," 7.79"
2019-02-26T22:39:38.481Z," 7.63"
2019-02-26T22:44:34.270Z," 7.63"
2019-02-26T22:49:31.382Z," 7.61"
2019-02-26T22:54:26.875Z," 7.53"
2019-02-26T22:59:22.516Z," 7.60"
2019-02-26T23:04:19.673Z," 7.69"
2019-02-26T23:09:17.645Z," 7.38"
2019-02-26T23:14:13.745Z," 7.20"
2019-02-26T23:19:09.245Z," 7.13"
2019-02-26T23:24:05.005Z," 6.97"
2019-02-26T23:29:01.096Z," 7.02"
2019-02-26T23:33:56.624Z," 6.95"
2019-02-26T23:38:51.711Z," 6.79"
2019-02-26T23:43:48.195Z," 6.77"
2019-02-26T23:48:43.667Z," 6.84"
2019-02-26T23:53:40.448Z," 6.72"
2019-02-26T23:58:36.792Z," 6.87"
